createdAt,value
2019-06-20T00:03:36.595Z,21.50
2019-06-20T00:07:46.885Z,21.40
2019-06-20T00:11:58.154Z,21.40
2019-06-20T00:16:08.431Z,21.40
2019-06-20T00:20:18.889Z,21.50
2019-06-20T00:24:29.211Z,21.50
2019-06-20T00:28:39.413Z,21.40
2019-06-20T00:32:49.762Z,21.30
2019-06-20T00:37:00.065Z,21.30
2019-06-20T00:41:10.558Z,21.20
2019-06-20T00:45:21.116Z,21.20
2019-06-20T00:49:31.443Z,21.30
2019-06-20T00:53:41.885Z,21.30
2019-06-20T00:57:52.313Z,21.10
2019-06-20T01:02:02.531Z,21.10
2019-06-20T01:06:12.708Z,21.20
2019-06-20T01:10:22.974Z,21.30
2019-06-20T01:14:33.314Z,21.40
2019-06-20T01:18:43.643Z,21.60
2019-06-20T01:22:53.972Z,21.40
2019-06-20T01:27:04.385Z,21.30
2019-06-20T01:31:14.684Z,21.30
2019-06-20T01:35:24.983Z,21.10
2019-06-20T01:39:35.435Z,21.00
2019-06-20T01:43:50.714Z,21.00
2019-06-20T01:47:57.595Z,21.10
2019-06-20T01:52:07.948Z,21.10
2019-06-20T01:56:18.552Z,21.10
2019-06-20T02:00:50.130Z,21.10
2019-06-20T02:05:00.552Z,21.00
2019-06-20T02:09:11.890Z,21.00
2019-06-20T02:13:22.245Z,20.70
2019-06-20T02:17:32.640Z,20.80
2019-06-20T02:21:42.989Z,21.00
2019-06-20T02:25:53.188Z,21.00
2019-06-20T02:30:03.761Z,20.90
2019-06-20T02:34:14.011Z,20.50
2019-06-20T02:38:24.351Z,19.90
2019-06-20T02:42:34.830Z,18.90
2019-06-20T02:46:45.249Z,18.50
2019-06-20T02:50:55.615Z,18.40
2019-06-20T02:55:06.038Z,18.40
2019-06-20T02:59:16.388Z,18.50
2019-06-20T03:03:28.321Z,18.70
2019-06-20T03:07:38.805Z,18.80
2019-06-20T03:11:49.390Z,18.90
2019-06-20T03:16:00.075Z,19.00
2019-06-20T03:20:10.538Z,19.10
2019-06-20T03:24:20.759Z,19.20
2019-06-20T03:28:31.107Z,19.10
2019-06-20T03:32:41.410Z,19.30
2019-06-20T03:36:51.837Z,19.40
2019-06-20T03:41:02.255Z,19.30
2019-06-20T03:45:13.405Z,19.30
2019-06-20T03:49:23.768Z,19.50
2019-06-20T03:53:34.096Z,19.60
2019-06-20T03:57:44.546Z,19.60
2019-06-20T04:01:54.881Z,19.70
2019-06-20T04:06:05.239Z,19.70
2019-06-20T04:10:15.524Z,19.90
2019-06-20T04:14:25.870Z,20.40
2019-06-20T04:18:36.178Z,20.60
2019-06-20T04:22:46.435Z,20.60
2019-06-20T04:26:56.761Z,20.40
2019-06-20T04:31:07.126Z,20.10
2019-06-20T04:35:17.433Z,20.10
2019-06-20T04:39:27.768Z,20.10
2019-06-20T04:43:38.157Z,20.20
2019-06-20T04:47:48.449Z,20.40
2019-06-20T04:51:58.852Z,20.80
2019-06-20T04:56:09.147Z,21.30
2019-06-20T05:00:19.790Z,21.40
2019-06-20T05:04:30.066Z,21.10
2019-06-20T05:08:40.408Z,20.90
2019-06-20T05:12:50.730Z,20.80
2019-06-20T05:17:00.975Z,20.70
2019-06-20T05:21:11.317Z,20.60
2019-06-20T05:25:21.623Z,19.80
2019-06-20T05:29:31.953Z,19.30
2019-06-20T05:33:42.180Z,19.20
2019-06-20T05:37:52.497Z,19.30
2019-06-20T05:42:02.874Z,19.10
2019-06-20T05:46:13.179Z,18.50
2019-06-20T05:50:23.476Z,18.40
2019-06-20T05:54:34.180Z,18.50
2019-06-20T05:58:44.529Z,18.40
2019-06-20T06:02:54.872Z,18.40
2019-06-20T06:07:05.234Z,18.50
2019-06-20T06:11:16.609Z,18.90
2019-06-20T06:15:27.132Z,19.10
2019-06-20T06:19:37.479Z,19.40
2019-06-20T06:23:47.872Z,19.90
2019-06-20T06:27:58.481Z,19.90
2019-06-20T06:32:08.994Z,20.20
2019-06-20T06:36:19.303Z,20.60
2019-06-20T06:40:29.674Z,20.80
2019-06-20T06:44:40.017Z,21.00
2019-06-20T06:48:50.368Z,21.10
2019-06-20T06:53:00.736Z,21.20
2019-06-20T06:57:11.090Z,21.20
2019-06-20T07:01:21.407Z,21.30
2019-06-20T07:05:31.716Z,21.50
2019-06-20T07:09:42.062Z,21.40
2019-06-20T07:13:52.367Z,21.20
2019-06-20T07:18:02.681Z,21.10
2019-06-20T07:22:13.116Z,21.60
2019-06-20T07:26:23.414Z,22.10
2019-06-20T07:30:33.723Z,22.20
2019-06-20T07:34:44.050Z,22.20
2019-06-20T07:38:54.474Z,21.90
2019-06-20T07:43:05.123Z,22.00
2019-06-20T07:47:17.946Z,22.40
2019-06-20T07:51:27.389Z,23.20
2019-06-20T07:55:37.649Z,23.90
2019-06-20T07:59:47.935Z,24.60
2019-06-20T08:03:58.376Z,24.80
2019-06-20T08:08:08.581Z,25.00
2019-06-20T08:12:19.062Z,25.30
2019-06-20T08:16:29.386Z,25.40
2019-06-20T08:20:39.599Z,25.20
2019-06-20T08:24:49.922Z,25.30
2019-06-20T08:29:16.153Z,25.50
2019-06-20T08:33:12.715Z,26.10
2019-06-20T08:37:23.048Z,26.60
2019-06-20T08:41:33.459Z,26.50
2019-06-20T08:45:44.248Z,26.70
2019-06-20T08:49:55.196Z,26.90
2019-06-20T08:54:06.623Z,27.30
2019-06-20T08:58:17.070Z,27.50
2019-06-20T09:02:27.390Z,27.50
2019-06-20T09:06:37.708Z,27.40
2019-06-20T09:10:48.010Z,27.20
2019-06-20T09:14:59.196Z,27.40
2019-06-20T09:19:09.548Z,28.00
2019-06-20T09:23:20.057Z,28.30
2019-06-20T09:27:30.466Z,28.00
2019-06-20T09:31:40.780Z,27.80
2019-06-20T09:35:52.415Z,28.30
2019-06-20T09:40:03.688Z,28.60
2019-06-20T09:44:14.033Z,28.80
2019-06-20T09:48:24.402Z,28.50
2019-06-20T09:52:34.740Z,28.00
2019-06-20T09:56:47.181Z,27.60
2019-06-20T10:00:57.477Z,27.60
2019-06-20T10:05:09.758Z,27.60
2019-06-20T10:09:20.107Z,27.40
2019-06-20T10:13:32.664Z,27.40
2019-06-20T10:17:42.356Z,27.50
2019-06-20T10:21:53.774Z,27.40
2019-06-20T10:26:04.309Z,27.40
2019-06-20T10:30:15.105Z,27.40
2019-06-20T10:34:26.257Z,27.50
2019-06-20T10:38:36.696Z,27.70
2019-06-20T10:42:48.098Z,27.90
2019-06-20T10:46:58.476Z,28.00
2019-06-20T10:51:26.639Z,28.40
2019-06-20T10:55:37.046Z,28.60
2019-06-20T10:59:48.431Z,28.50
2019-06-20T11:03:58.772Z,28.20
2019-06-20T11:08:09.029Z,27.90
2019-06-20T11:12:19.742Z,28.10
2019-06-20T11:16:29.962Z,28.30
2019-06-20T11:20:40.974Z,29.10
2019-06-20T11:24:52.124Z,29.90
2019-06-20T11:29:02.488Z,30.00
2019-06-20T11:33:12.761Z,29.70
2019-06-20T11:37:23.071Z,28.90
2019-06-20T11:41:33.387Z,28.90
2019-06-20T11:45:43.681Z,28.40
2019-06-20T11:49:54.019Z,28.20
2019-06-20T11:54:04.497Z,28.10
2019-06-20T11:58:14.804Z,28.30
2019-06-20T12:02:25.110Z,28.20
2019-06-20T12:06:35.434Z,28.50
2019-06-20T12:10:45.651Z,28.80
2019-06-20T12:14:55.984Z,28.60
2019-06-20T12:19:06.469Z,28.50
2019-06-20T12:23:16.812Z,28.70
2019-06-20T12:27:27.122Z,28.40
2019-06-20T12:31:37.443Z,28.20
2019-06-20T12:35:48.673Z,28.70
2019-06-20T12:39:59.012Z,28.40
2019-06-20T12:44:09.443Z,28.00
2019-06-20T12:48:19.751Z,27.90
2019-06-20T12:52:30.050Z,28.10
2019-06-20T12:56:41.885Z,28.00
2019-06-20T13:00:52.263Z,27.70
2019-06-20T13:05:02.548Z,27.70
2019-06-20T13:09:13.108Z,27.50
2019-06-20T13:13:23.497Z,27.50
2019-06-20T13:17:33.799Z,27.80
2019-06-20T13:21:44.680Z,28.30
2019-06-20T13:25:55.023Z,28.60
2019-06-20T13:30:07.431Z,28.50
2019-06-20T13:34:17.725Z,28.20
2019-06-20T13:38:28.062Z,28.30
2019-06-20T13:42:39.046Z,28.50
2019-06-20T13:46:50.541Z,28.60
2019-06-20T13:51:00.757Z,28.50
2019-06-20T13:55:11.227Z,28.60
2019-06-20T13:59:21.599Z,28.60
2019-06-20T14:03:31.994Z,28.70
2019-06-20T14:07:46.986Z,28.80
2019-06-20T14:11:54.766Z,28.70
2019-06-20T14:16:05.188Z,28.50
2019-06-20T14:20:15.744Z,28.70
2019-06-20T14:24:26.106Z,28.70
2019-06-20T14:28:37.147Z,28.60
2019-06-20T14:32:47.436Z,28.30
2019-06-20T14:36:57.816Z,28.50
2019-06-20T14:41:08.128Z,28.40
2019-06-20T14:45:18.881Z,28.30
2019-06-20T14:49:29.283Z,28.40
2019-06-20T14:53:39.771Z,28.40
2019-06-20T14:57:50.534Z,28.40
2019-06-20T15:02:01.285Z,28.50
2019-06-20T15:06:11.643Z,28.30
2019-06-20T15:10:22.003Z,28.50
2019-06-20T15:14:32.412Z,28.80
2019-06-20T15:18:46.400Z,29.00
2019-06-20T15:22:54.836Z,28.90
2019-06-20T15:27:05.156Z,28.30
2019-06-20T15:31:15.456Z,28.00
2019-06-20T15:35:26.009Z,28.10
2019-06-20T15:39:36.331Z,28.20
2019-06-20T15:43:48.060Z,28.10
2019-06-20T15:47:58.732Z,28.10
2019-06-20T15:52:09.085Z,28.20
2019-06-20T15:56:19.392Z,28.00
2019-06-20T16:00:29.708Z,27.80
2019-06-20T16:04:40.059Z,28.20
2019-06-20T16:08:50.345Z,28.50
2019-06-20T16:13:00.691Z,28.30
2019-06-20T16:17:10.890Z,28.20
2019-06-20T16:21:21.218Z,28.20
2019-06-20T16:25:31.617Z,28.10
2019-06-20T16:29:41.945Z,28.10
2019-06-20T16:33:52.297Z,27.90
2019-06-20T16:38:02.605Z,27.70
2019-06-20T16:42:12.974Z,27.50
2019-06-20T16:46:23.342Z,27.30
2019-06-20T16:50:33.608Z,27.20
2019-06-20T16:54:44.048Z,27.20
2019-06-20T16:58:54.424Z,27.20
2019-06-20T17:03:06.443Z,27.20
2019-06-20T17:07:17.457Z,27.10
2019-06-20T17:11:27.713Z,27.20
2019-06-20T17:15:38.152Z,27.20
2019-06-20T17:19:48.567Z,27.20
2019-06-20T17:23:59.092Z,27.20
2019-06-20T17:28:09.809Z,27.20
2019-06-20T17:32:20.104Z,27.20
2019-06-20T17:36:30.409Z,27.30
2019-06-20T17:40:41.537Z,27.30
2019-06-20T17:44:52.601Z,27.20
2019-06-20T17:49:02.982Z,26.90
2019-06-20T17:53:13.562Z,26.70
2019-06-20T17:57:23.891Z,26.40
2019-06-20T18:01:36.057Z,26.30
2019-06-20T18:05:46.111Z,26.30
2019-06-20T18:09:56.475Z,26.20
2019-06-20T18:14:06.877Z,26.00
2019-06-20T18:18:17.228Z,25.70
2019-06-20T18:22:27.542Z,25.40
2019-06-20T18:26:37.876Z,24.80
2019-06-20T18:30:48.669Z,24.50
2019-06-20T18:35:02.283Z,24.20
2019-06-20T18:39:11.849Z,23.90
2019-06-20T18:43:22.281Z,23.80
2019-06-20T18:47:32.678Z,23.80
2019-06-20T18:51:43.065Z,23.70
2019-06-20T18:55:53.343Z,23.60
2019-06-20T19:00:10.133Z,23.60
2019-06-20T19:04:21.176Z,23.50
2019-06-20T19:08:32.014Z,23.30
2019-06-20T19:12:42.358Z,23.30
2019-06-20T19:16:52.793Z,23.40
2019-06-20T19:21:03.114Z,23.30
2019-06-20T19:25:13.690Z,23.10
2019-06-20T19:29:24.085Z,23.10
2019-06-20T19:33:34.428Z,22.90
2019-06-20T19:37:44.620Z,22.90
2019-06-20T19:41:54.992Z,23.00
2019-06-20T19:46:05.297Z,22.90
2019-06-20T19:50:16.215Z,23.00
2019-06-20T19:54:26.507Z,23.10
2019-06-20T19:58:36.841Z,22.80
2019-06-20T20:02:47.144Z,22.70
2019-06-20T20:06:57.507Z,21.90
2019-06-20T20:11:07.807Z,21.10
2019-06-20T20:15:20.610Z,20.20
2019-06-20T20:19:31.020Z,19.80
2019-06-20T20:23:41.353Z,19.70
2019-06-20T20:27:51.819Z,19.70
2019-06-20T20:32:02.252Z,19.90
2019-06-20T20:36:24.335Z,19.90
2019-06-20T20:40:24.588Z,20.00
2019-06-20T20:44:34.894Z,20.00
2019-06-20T20:48:45.227Z,20.10
2019-06-20T20:52:55.586Z,20.20
2019-06-20T20:57:05.929Z,20.40
2019-06-20T21:01:19.414Z,20.30
2019-06-20T21:05:29.727Z,20.20
2019-06-20T21:09:40.353Z,20.10
2019-06-20T21:13:50.800Z,20.10
2019-06-20T21:18:01.103Z,20.00
2019-06-20T21:22:11.423Z,20.00
2019-06-20T21:26:21.793Z,20.10
2019-06-20T21:30:32.189Z,20.00
2019-06-20T21:34:43.246Z,20.00
2019-06-20T21:38:53.426Z,19.80
2019-06-20T21:43:03.842Z,19.70
2019-06-20T21:47:14.210Z,19.30
2019-06-20T21:51:24.487Z,19.30
2019-06-20T21:55:34.789Z,19.50
2019-06-20T21:59:45.140Z,19.60
2019-06-20T22:03:55.574Z,19.40
2019-06-20T22:08:06.025Z,19.00
2019-06-20T22:12:16.338Z,18.80
2019-06-20T22:16:26.775Z,18.60
2019-06-20T22:20:37.118Z,18.90
2019-06-20T22:24:47.989Z,19.20
2019-06-20T22:28:58.278Z,19.00
2019-06-20T22:33:10.155Z,19.00
2019-06-20T22:37:20.471Z,19.20
2019-06-20T22:41:30.869Z,19.10
2019-06-20T22:45:43.592Z,18.70
2019-06-20T22:49:53.675Z,18.70
2019-06-20T22:54:04.191Z,18.70
2019-06-20T22:58:14.629Z,18.80
2019-06-20T23:02:24.984Z,18.90
2019-06-20T23:06:35.355Z,19.00
2019-06-20T23:10:45.685Z,19.10
2019-06-20T23:14:56.015Z,19.00
2019-06-20T23:19:06.330Z,18.90
2019-06-20T23:23:16.629Z,18.80
2019-06-20T23:27:27.063Z,18.70
2019-06-20T23:31:37.409Z,18.70
2019-06-20T23:35:47.812Z,18.80
2019-06-20T23:39:58.157Z,18.80
2019-06-20T23:44:08.494Z,18.70
2019-06-20T23:48:18.858Z,18.60
2019-06-20T23:52:30.945Z,18.60
2019-06-20T23:56:41.254Z,18.60
